Naniwa Maru No.21 — JG5648 — position and weather

sailwx.info

Track history (hours):
 
Tides and Currents Weather Stations Pressure Air Temp Water Temp Dewpoint Dewpoint Depression Visibility Wind Speed Wind Dir Waves Ship Positions

Naniwa Maru No.21

Last reported at 2015-Feb-28 02:03 UTC. Time now 2015-Mar-02 11:15 UTC.
Position N 33°36' E 130°23'.

Length 71 m; draft 5.2 m.

Type: Tanker. MMSI: 431301595.

Date/timePositionNaut miles runAvg speedWind from/ knotsBaromVisibWave heightAir tempDewpointWater temp
2015-Feb-28 02:03N 33°36' E 130°23'0 0.0
2015-Feb-28 01:33N 33°36' E 130°23'0 0.0
2015-Feb-28 00:33N 33°36' E 130°23'0 0.0
2015-Feb-27 23:33N 33°36' E 130°23'1 0.6
2015-Feb-27 22:33N 33°37' E 130°23'2 1.9
2015-Feb-27 21:33N 33°38' E 130°21'0 0.1
2015-Feb-27 20:30N 33°38' E 130°21'0 0.0
2015-Feb-27 19:30N 33°38' E 130°21'0 0.0
2015-Feb-27 18:24N 33°38' E 130°21'0 0.0
2015-Feb-27 17:33N 33°38' E 130°21'0 0.0
2015-Feb-27 16:33N 33°38' E 130°21'0 0.0
2015-Feb-27 15:33N 33°38' E 130°21'0 0.0
2015-Feb-27 14:33N 33°38' E 130°21'7 7.0
2015-Feb-27 13:33N 33°43' E 130°16'28 0.9
2015-Feb-26 06:12N 33°58' E 130°45'2112.9
2015-Feb-26 04:33N 33°48' E 130°22'1010.1
2015-Feb-26 03:34N 33°38' E 130°20'3 3.2
2015-Feb-26 02:33N 33°36' E 130°23'0 0.0
2015-Feb-26 01:32N 33°36' E 130°23'0 0.0
2015-Feb-26 00:31N 33°36' E 130°23'0 0.0
2015-Feb-25 23:31N 33°36' E 130°23'2 1.8
2015-Feb-25 22:33N 33°37' E 130°21'0 0.1
2015-Feb-25 21:33N 33°37' E 130°21'0 0.1
2015-Feb-25 20:30N 33°37' E 130°21'0 0.1
2015-Feb-25 19:33N 33°37' E 130°21'0 0.1
2015-Feb-25 18:33N 33°37' E 130°21'0 0.1
2015-Feb-25 17:33N 33°37' E 130°21'0 0.0
2015-Feb-25 16:24N 33°37' E 130°21'0 0.0
2015-Feb-25 15:21N 33°37' E 130°21'0 0.1
2015-Feb-25 14:33N 33°37' E 130°21'0 0.0
2015-Feb-25 13:30N 33°37' E 130°21'0 0.0
2015-Feb-25 12:18N 33°37' E 130°21'0 0.1
2015-Feb-25 11:33N 33°37' E 130°21'0 0.1
2015-Feb-25 10:27N 33°37' E 130°21'0 0.1
2015-Feb-25 09:33N 33°37' E 130°21'0 0.0
2015-Feb-25 08:30N 33°37' E 130°21'3 3.6
2015-Feb-25 07:33N 33°39' E 130°18'1211.9
2015-Feb-25 06:32N 33°51' E 130°21'23011.5
2015-Feb-24 10:33N 34°08' E 134°57'8 1.7
2015-Feb-24 05:31N 34°07' E 135°08'4 4.3
2015-Feb-24 04:33N 34°10' E 135°04'2412.1
2015-Feb-24 02:32N 34°34' E 135°03'21912.2
2015-Feb-23 08:33N 33°58' E 130°41'1412.8
2015-Feb-23 07:28N 33°52' E 130°26'1314.1
2015-Feb-23 06:33N 33°42' E 130°16'8 8.2
2015-Feb-23 05:33N 33°36' E 130°23'0 0.0
2015-Feb-23 04:33N 33°36' E 130°23'0 0.0
2015-Feb-23 03:33N 33°36' E 130°23'0 0.0
2015-Feb-23 02:30N 33°36' E 130°23'1 0.5
2015-Feb-23 01:21N 33°37' E 130°23'1 1.9
2015-Feb-23 00:33N 33°37' E 130°21'0 0.0
2015-Feb-22 23:33N 33°37' E 130°21'0 0.0
2015-Feb-22 22:33N 33°37' E 130°21'0 0.0
2015-Feb-22 21:25N 33°37' E 130°21'0 0.1
2015-Feb-22 20:28N 33°37' E 130°21'0 0.1
2015-Feb-22 19:33N 33°37' E 130°21'0 0.0
2015-Feb-22 18:30N 33°37' E 130°21'0 0.1
2015-Feb-22 17:30N 33°37' E 130°21'0 0.0
2015-Feb-22 16:21N 33°37' E 130°21'0 0.0
2015-Feb-22 15:21N 33°37' E 130°21'0 0.0
2015-Feb-22 14:31N 33°37' E 130°21'0 0.1
2015-Feb-22 13:33N 33°37' E 130°21'0 0.0
2015-Feb-22 12:28N 33°37' E 130°21'0 0.0
2015-Feb-22 11:30N 33°37' E 130°21'0 0.0
2015-Feb-22 10:33N 33°37' E 130°21'0 0.0
2015-Feb-22 09:30N 33°37' E 130°21'0 0.0
2015-Feb-22 08:27N 33°37' E 130°21'0 0.1
2015-Feb-22 07:27N 33°37' E 130°21'0 0.1
2015-Feb-22 06:30N 33°37' E 130°21'0 0.0
2015-Feb-22 05:33N 33°37' E 130°21'5 5.2
2015-Feb-22 04:33N 33°40' E 130°16'1212.3
2015-Feb-22 03:33N 33°52' E 130°21'22711.7
2015-Feb-21 08:10N 34°08' E 134°54'813.5
2015-Feb-21 07:33N 34°08' E 135°04'3 1.2
2015-Feb-21 05:19N 34°07' E 135°08'0 0.0
2015-Feb-21 02:32N 34°07' E 135°08'1 0.7
2015-Feb-21 01:33N 34°08' E 135°07'2411.1
2015-Feb-20 23:26N 34°31' E 135°01'7 7.0
2015-Feb-20 22:29N 34°36' E 134°57'21412.6
2015-Feb-20 05:29N 33°58' E 130°43'1512.5
2015-Feb-20 04:16N 33°52' E 130°26'1013.5
2015-Feb-20 03:33N 33°45' E 130°18'9 9.1
2015-Feb-20 02:33N 33°36' E 130°23'0 0.0
2015-Feb-20 01:30N 33°36' E 130°23'0 0.0
2015-Feb-20 00:32N 33°36' E 130°23'0 0.0
2015-Feb-19 23:32N 33°36' E 130°23'1 0.7
2015-Feb-19 22:33N 33°37' E 130°23'2 1.7
2015-Feb-19 21:31N 33°37' E 130°21'0 0.0
2015-Feb-19 20:28N 33°37' E 130°21'0 0.1
2015-Feb-19 19:33N 33°38' E 130°21'0 0.0
2015-Feb-19 18:33N 33°38' E 130°21'0 0.0
2015-Feb-19 17:33N 33°38' E 130°21'0 0.0
2015-Feb-19 16:31N 33°38' E 130°21'0 0.0
2015-Feb-19 15:27N 33°37' E 130°21'0 0.0
2015-Feb-19 14:33N 33°37' E 130°21'0 0.0
2015-Feb-19 13:33N 33°37' E 130°21'0 0.0
2015-Feb-19 12:33N 33°37' E 130°21'0 0.0
2015-Feb-19 11:33N 33°37' E 130°21'0 0.0
2015-Feb-19 10:24N 33°37' E 130°21'0 0.0
2015-Feb-19 09:30N 33°37' E 130°21'0 0.0
2015-Feb-19 08:30N 33°37' E 130°21'0 0.0
2015-Feb-19 07:27N 33°37' E 130°21'0 0.0
2015-Feb-19 06:33N 33°37' E 130°21'0 0.0
2015-Feb-19 05:30N 33°37' E 130°21'2 2.0
2015-Feb-19 04:33N 33°38' E 130°19'1110.7
2015-Feb-19 03:33N 33°49' E 130°19'22911.9
2015-Feb-18 08:19N 34°08' E 134°54'1013.3
2015-Feb-18 07:33N 34°08' E 135°06'1 0.5
2015-Feb-18 05:33N 34°07' E 135°08'0 0.0
2015-Feb-18 04:33N 34°07' E 135°08'0 0.0
2015-Feb-18 03:32N 34°07' E 135°08'0 0.4
2015-Feb-18 02:30N 34°07' E 135°08'  
Track history (hours):
 
Tides and Currents Weather Stations Pressure Air Temp Water Temp Dewpoint Dewpoint Depression Visibility Wind Speed Wind Dir Waves Ship Positions

Naniwa Maru No.21

Last reported at 2015-Feb-28 02:03 UTC. Time now 2015-Mar-02 11:15 UTC.
Position N 33°36' E 130°23'.

Length 71 m; draft 5.2 m.

Type: Tanker. MMSI: 431301595.

Date/timePositionNaut miles runAvg speedWind from/ knotsBaromVisibWave heightAir tempDewpointWater temp
2015-Feb-28 02:03N 33°36' E 130°23'0 0.0
2015-Feb-28 01:33N 33°36' E 130°23'0 0.0
2015-Feb-28 00:33N 33°36' E 130°23'0 0.0
2015-Feb-27 23:33N 33°36' E 130°23'1 0.6
2015-Feb-27 22:33N 33°37' E 130°23'2 1.9
2015-Feb-27 21:33N 33°38' E 130°21'0 0.1
2015-Feb-27 20:30N 33°38' E 130°21'0 0.0
2015-Feb-27 19:30N 33°38' E 130°21'0 0.0
2015-Feb-27 18:24N 33°38' E 130°21'0 0.0
2015-Feb-27 17:33N 33°38' E 130°21'0 0.0
2015-Feb-27 16:33N 33°38' E 130°21'0 0.0
2015-Feb-27 15:33N 33°38' E 130°21'0 0.0
2015-Feb-27 14:33N 33°38' E 130°21'7 7.0
2015-Feb-27 13:33N 33°43' E 130°16'28 0.9
2015-Feb-26 06:12N 33°58' E 130°45'2112.9
2015-Feb-26 04:33N 33°48' E 130°22'1010.1
2015-Feb-26 03:34N 33°38' E 130°20'3 3.2
2015-Feb-26 02:33N 33°36' E 130°23'0 0.0
2015-Feb-26 01:32N 33°36' E 130°23'0 0.0
2015-Feb-26 00:31N 33°36' E 130°23'0 0.0
2015-Feb-25 23:31N 33°36' E 130°23'2 1.8
2015-Feb-25 22:33N 33°37' E 130°21'0 0.1
2015-Feb-25 21:33N 33°37' E 130°21'0 0.1
2015-Feb-25 20:30N 33°37' E 130°21'0 0.1
2015-Feb-25 19:33N 33°37' E 130°21'0 0.1
2015-Feb-25 18:33N 33°37' E 130°21'0 0.1
2015-Feb-25 17:33N 33°37' E 130°21'0 0.0
2015-Feb-25 16:24N 33°37' E 130°21'0 0.0
2015-Feb-25 15:21N 33°37' E 130°21'0 0.1
2015-Feb-25 14:33N 33°37' E 130°21'0 0.0
2015-Feb-25 13:30N 33°37' E 130°21'0 0.0
2015-Feb-25 12:18N 33°37' E 130°21'0 0.1
2015-Feb-25 11:33N 33°37' E 130°21'0 0.1
2015-Feb-25 10:27N 33°37' E 130°21'0 0.1
2015-Feb-25 09:33N 33°37' E 130°21'0 0.0
2015-Feb-25 08:30N 33°37' E 130°21'3 3.6
2015-Feb-25 07:33N 33°39' E 130°18'1211.9
2015-Feb-25 06:32N 33°51' E 130°21'23011.5
2015-Feb-24 10:33N 34°08' E 134°57'8 1.7
2015-Feb-24 05:31N 34°07' E 135°08'4 4.3
2015-Feb-24 04:33N 34°10' E 135°04'2412.1
2015-Feb-24 02:32N 34°34' E 135°03'21912.2
2015-Feb-23 08:33N 33°58' E 130°41'1412.8
2015-Feb-23 07:28N 33°52' E 130°26'1314.1
2015-Feb-23 06:33N 33°42' E 130°16'8 8.2
2015-Feb-23 05:33N 33°36' E 130°23'0 0.0
2015-Feb-23 04:33N 33°36' E 130°23'0 0.0
2015-Feb-23 03:33N 33°36' E 130°23'0 0.0
2015-Feb-23 02:30N 33°36' E 130°23'1 0.5
2015-Feb-23 01:21N 33°37' E 130°23'1 1.9
2015-Feb-23 00:33N 33°37' E 130°21'0 0.0
2015-Feb-22 23:33N 33°37' E 130°21'0 0.0
2015-Feb-22 22:33N 33°37' E 130°21'0 0.0
2015-Feb-22 21:25N 33°37' E 130°21'0 0.1
2015-Feb-22 20:28N 33°37' E 130°21'0 0.1
2015-Feb-22 19:33N 33°37' E 130°21'0 0.0
2015-Feb-22 18:30N 33°37' E 130°21'0 0.1
2015-Feb-22 17:30N 33°37' E 130°21'0 0.0
2015-Feb-22 16:21N 33°37' E 130°21'0 0.0
2015-Feb-22 15:21N 33°37' E 130°21'0 0.0
2015-Feb-22 14:31N 33°37' E 130°21'0 0.1
2015-Feb-22 13:33N 33°37' E 130°21'0 0.0
2015-Feb-22 12:28N 33°37' E 130°21'0 0.0
2015-Feb-22 11:30N 33°37' E 130°21'0 0.0
2015-Feb-22 10:33N 33°37' E 130°21'0 0.0
2015-Feb-22 09:30N 33°37' E 130°21'0 0.0
2015-Feb-22 08:27N 33°37' E 130°21'0 0.1
2015-Feb-22 07:27N 33°37' E 130°21'0 0.1
2015-Feb-22 06:30N 33°37' E 130°21'0 0.0
2015-Feb-22 05:33N 33°37' E 130°21'5 5.2
2015-Feb-22 04:33N 33°40' E 130°16'1212.3
2015-Feb-22 03:33N 33°52' E 130°21'22711.7
2015-Feb-21 08:10N 34°08' E 134°54'813.5
2015-Feb-21 07:33N 34°08' E 135°04'3 1.2
2015-Feb-21 05:19N 34°07' E 135°08'0 0.0
2015-Feb-21 02:32N 34°07' E 135°08'1 0.7
2015-Feb-21 01:33N 34°08' E 135°07'2411.1
2015-Feb-20 23:26N 34°31' E 135°01'7 7.0
2015-Feb-20 22:29N 34°36' E 134°57'21412.6
2015-Feb-20 05:29N 33°58' E 130°43'1512.5
2015-Feb-20 04:16N 33°52' E 130°26'1013.5
2015-Feb-20 03:33N 33°45' E 130°18'9 9.1
2015-Feb-20 02:33N 33°36' E 130°23'0 0.0
2015-Feb-20 01:30N 33°36' E 130°23'0 0.0
2015-Feb-20 00:32N 33°36' E 130°23'0 0.0
2015-Feb-19 23:32N 33°36' E 130°23'1 0.7
2015-Feb-19 22:33N 33°37' E 130°23'2 1.7
2015-Feb-19 21:31N 33°37' E 130°21'0 0.0
2015-Feb-19 20:28N 33°37' E 130°21'0 0.1
2015-Feb-19 19:33N 33°38' E 130°21'0 0.0
2015-Feb-19 18:33N 33°38' E 130°21'0 0.0
2015-Feb-19 17:33N 33°38' E 130°21'0 0.0
2015-Feb-19 16:31N 33°38' E 130°21'0 0.0
2015-Feb-19 15:27N 33°37' E 130°21'0 0.0
2015-Feb-19 14:33N 33°37' E 130°21'0 0.0
2015-Feb-19 13:33N 33°37' E 130°21'0 0.0
2015-Feb-19 12:33N 33°37' E 130°21'0 0.0
2015-Feb-19 11:33N 33°37' E 130°21'0 0.0
2015-Feb-19 10:24N 33°37' E 130°21'0 0.0
2015-Feb-19 09:30N 33°37' E 130°21'0 0.0
2015-Feb-19 08:30N 33°37' E 130°21'0 0.0
2015-Feb-19 07:27N 33°37' E 130°21'0 0.0
2015-Feb-19 06:33N 33°37' E 130°21'0 0.0
2015-Feb-19 05:30N 33°37' E 130°21'2 2.0
2015-Feb-19 04:33N 33°38' E 130°19'1110.7
2015-Feb-19 03:33N 33°49' E 130°19'22911.9
2015-Feb-18 08:19N 34°08' E 134°54'1013.3
2015-Feb-18 07:33N 34°08' E 135°06'1 0.5
2015-Feb-18 05:33N 34°07' E 135°08'0 0.0
2015-Feb-18 04:33N 34°07' E 135°08'0 0.0
2015-Feb-18 03:32N 34°07' E 135°08'0 0.4
2015-Feb-18 02:30N 34°07' E 135°08'  

Dump ship's entire track history